createdAt,value
2023-02-14T00:01:49.904Z,12.00
2023-02-14T00:04:19.369Z,11.00
2023-02-14T00:06:47.693Z,11.00
2023-02-14T00:09:19.154Z,12.50
2023-02-14T00:11:47.420Z,11.00
2023-02-14T00:14:35.867Z,11.00
2023-02-14T00:17:04.976Z,9.00
2023-02-14T00:19:35.090Z,11.50
2023-02-14T00:22:04.484Z,9.00
2023-02-14T00:24:32.859Z,7.00
2023-02-14T00:27:01.208Z,12.00
2023-02-14T00:29:32.394Z,7.00
2023-02-14T00:32:01.375Z,9.00
2023-02-14T00:34:30.078Z,8.00
2023-02-14T00:36:59.372Z,11.00
2023-02-14T00:39:27.959Z,11.00
2023-02-14T00:41:56.441Z,12.50
2023-02-14T00:44:25.429Z,7.00
2023-02-14T00:46:53.906Z,10.00
2023-02-14T00:49:22.598Z,11.50
2023-02-14T00:51:51.077Z,10.00
2023-02-14T00:54:19.478Z,11.00
2023-02-14T00:56:47.937Z,10.00
2023-02-14T00:59:16.741Z,13.00
2023-02-14T01:01:45.027Z,12.00
2023-02-14T01:04:13.692Z,9.50
2023-02-14T01:06:42.178Z,11.00
2023-02-14T01:09:10.558Z,11.25
2023-02-14T01:11:40.366Z,11.50
2023-02-14T01:14:08.745Z,8.00
2023-02-14T01:16:39.500Z,11.00
2023-02-14T01:19:09.700Z,12.00
2023-02-14T01:21:38.187Z,12.00
2023-02-14T01:24:07.974Z,11.00
2023-02-14T01:26:36.996Z,9.50
2023-02-14T01:29:05.899Z,11.00
2023-02-14T01:31:35.604Z,7.67
2023-02-14T01:34:04.688Z,11.00
2023-02-14T01:36:36.751Z,11.50
2023-02-14T01:39:11.766Z,11.50
2023-02-14T01:41:42.321Z,9.00
2023-02-14T01:44:17.240Z,9.00
2023-02-14T01:46:47.700Z,9.00
2023-02-14T01:49:28.769Z,10.00
2023-02-14T01:52:04.434Z,10.33
2023-02-14T01:54:36.691Z,13.00
2023-02-14T01:57:08.889Z,9.00
2023-02-14T01:59:41.412Z,10.50
2023-02-14T02:02:10.558Z,8.00
2023-02-14T02:04:42.497Z,12.50
2023-02-14T02:07:14.502Z,12.00
2023-02-14T02:09:56.382Z,11.00
2023-02-14T02:12:25.240Z,7.00
2023-02-14T02:14:55.868Z,11.33
2023-02-14T02:17:55.378Z,12.00
2023-02-14T02:20:26.934Z,11.00
2023-02-14T02:23:25.826Z,9.33
2023-02-14T02:26:21.549Z,12.67
2023-02-14T02:29:09.383Z,12.33
2023-02-14T02:32:14.466Z,11.50
2023-02-14T02:35:05.858Z,11.50
2023-02-14T02:38:08.040Z,12.00
2023-02-14T02:40:51.856Z,12.00
2023-02-14T02:43:20.233Z,15.67
2023-02-14T02:46:17.339Z,10.50
2023-02-14T02:49:05.326Z,11.33
2023-02-14T02:52:10.236Z,13.00
2023-02-14T02:54:43.533Z,12.00
2023-02-14T02:57:24.199Z,12.00
2023-02-14T02:59:54.764Z,11.50
2023-02-14T03:02:31.581Z,11.00
2023-02-14T03:05:03.043Z,8.50
2023-02-14T03:07:39.908Z,11.00
2023-02-14T03:10:14.822Z,14.50
2023-02-14T03:12:54.921Z,12.00
2023-02-14T03:15:57.398Z,13.00
2023-02-14T03:18:39.123Z,12.67
2023-02-14T03:21:17.639Z,13.00
2023-02-14T03:24:05.186Z,13.67
2023-02-14T03:26:33.557Z,12.00
2023-02-14T03:29:02.884Z,15.00
2023-02-14T03:32:01.706Z,14.75
2023-02-14T03:34:41.590Z,12.00
2023-02-14T03:37:15.707Z,15.00
2023-02-14T03:39:55.863Z,12.33
2023-02-14T03:42:32.737Z,13.50
2023-02-14T03:45:02.866Z,12.00
2023-02-14T03:47:33.901Z,15.00
2023-02-14T03:50:19.196Z,15.00
2023-02-14T03:52:51.178Z,13.50
2023-02-14T03:55:27.566Z,13.00
2023-02-14T03:57:55.782Z,14.00
2023-02-14T04:00:24.482Z,12.67
2023-02-14T04:03:01.426Z,11.00
2023-02-14T04:05:29.833Z,14.00
2023-02-14T04:08:00.104Z,15.00
2023-02-14T04:10:28.435Z,12.50
2023-02-14T04:12:56.915Z,10.50
2023-02-14T04:15:25.424Z,14.33
2023-02-14T04:18:12.308Z,12.00
2023-02-14T04:20:40.792Z,11.50
2023-02-14T04:23:09.282Z,10.00
2023-02-14T04:25:40.337Z,11.50
2023-02-14T04:28:09.626Z,12.00
2023-02-14T04:30:38.104Z,11.50
2023-02-14T04:33:08.337Z,13.00
2023-02-14T04:35:37.438Z,15.00
2023-02-14T04:38:06.201Z,12.50
2023-02-14T04:40:34.591Z,11.67
2023-02-14T04:43:04.864Z,13.00
2023-02-14T04:45:33.395Z,13.33
2023-02-14T04:48:01.871Z,14.00
2023-02-14T04:50:30.363Z,13.67
2023-02-14T04:52:58.841Z,13.00
2023-02-14T04:55:27.444Z,14.50
2023-02-14T04:57:55.802Z,16.33
2023-02-14T05:00:24.894Z,14.00
2023-02-14T05:02:53.273Z,13.33
2023-02-14T05:05:21.750Z,12.00
2023-02-14T05:07:50.146Z,13.00
2023-02-14T05:10:18.924Z,14.00
2023-02-14T05:12:47.299Z,12.33
2023-02-14T05:15:15.982Z,15.00
2023-02-14T05:17:44.363Z,13.00
2023-02-14T05:20:13.050Z,14.00
2023-02-14T05:22:41.339Z,12.50
2023-02-14T05:25:09.864Z,13.00
2023-02-14T05:27:38.396Z,10.00
2023-02-14T05:30:07.750Z,13.00
2023-02-14T05:32:36.176Z,12.00
2023-02-14T05:35:05.579Z,14.67
2023-02-14T05:37:33.859Z,16.00
2023-02-14T05:40:02.255Z,13.50
2023-02-14T05:42:30.616Z,14.00
2023-02-14T05:44:59.200Z,11.75
2023-02-14T05:47:27.678Z,13.33
2023-02-14T05:49:56.165Z,13.00
2023-02-14T05:52:24.749Z,13.00
2023-02-14T05:54:53.760Z,11.50
2023-02-14T05:57:22.121Z,9.00
2023-02-14T05:59:50.604Z,11.50
2023-02-14T06:02:19.181Z,13.00
2023-02-14T06:04:47.850Z,12.33
2023-02-14T06:07:16.357Z,14.00
2023-02-14T06:09:45.052Z,13.00
2023-02-14T06:12:13.330Z,13.00
2023-02-14T06:14:43.239Z,8.00
2023-02-14T06:17:12.230Z,13.00
2023-02-14T06:19:40.554Z,15.00
2023-02-14T06:22:09.648Z,16.00
2023-02-14T06:24:37.881Z,15.00
2023-02-14T06:27:06.368Z,11.75
2023-02-14T06:29:34.743Z,13.00
2023-02-14T06:32:07.338Z,13.00
2023-02-14T06:34:36.212Z,11.00
2023-02-14T06:37:04.591Z,13.00
2023-02-14T06:39:33.072Z,15.00
2023-02-14T06:42:01.560Z,11.00
2023-02-14T06:44:29.942Z,12.00
2023-02-14T06:46:58.525Z,15.00
2023-02-14T06:49:27.001Z,13.67
2023-02-14T06:51:55.420Z,15.00
2023-02-14T06:54:23.968Z,17.00
2023-02-14T06:56:52.352Z,17.00
2023-02-14T06:59:20.928Z,14.25
2023-02-14T07:01:49.364Z,16.00
2023-02-14T07:04:18.097Z,17.00
2023-02-14T07:06:47.093Z,11.00
2023-02-14T07:09:18.150Z,14.00
2023-02-14T07:11:46.642Z,13.00
2023-02-14T07:14:15.197Z,12.00
2023-02-14T07:16:43.691Z,15.00
2023-02-14T07:19:12.060Z,13.33
2023-02-14T07:21:40.672Z,11.50
2023-02-14T07:24:09.332Z,12.00
2023-02-14T07:26:37.710Z,12.00
2023-02-14T07:29:06.507Z,12.00
2023-02-14T07:31:35.128Z,13.50
2023-02-14T07:34:03.765Z,11.50
2023-02-14T07:36:32.252Z,11.50
2023-02-14T07:39:00.737Z,12.00
2023-02-14T07:41:29.122Z,14.67
2023-02-14T07:43:57.598Z,13.75
2023-02-14T07:46:26.199Z,14.50
2023-02-14T07:48:54.663Z,13.00
2023-02-14T07:51:23.140Z,13.00
2023-02-14T07:53:51.624Z,12.00
2023-02-14T07:56:20.117Z,14.50
2023-02-14T07:58:50.224Z,15.00
2023-02-14T08:01:19.201Z,7.67
2023-02-14T08:03:49.778Z,11.50
2023-02-14T08:06:19.364Z,12.50
2023-02-14T08:08:48.561Z,12.50
2023-02-14T08:11:36.806Z,11.50
2023-02-14T08:14:05.691Z,12.00
2023-02-14T08:16:35.077Z,14.00
2023-02-14T08:19:03.486Z,14.33
2023-02-14T08:21:32.059Z,10.00
2023-02-14T08:24:00.737Z,11.50
2023-02-14T08:26:29.224Z,14.00
2023-02-14T08:28:57.700Z,14.00
2023-02-14T08:31:36.855Z,12.00
2023-02-14T08:34:06.438Z,11.00
2023-02-14T08:36:35.259Z,10.00
2023-02-14T08:39:05.473Z,22.00
2023-02-14T08:41:34.664Z,22.00
2023-02-14T08:44:03.535Z,17.00
2023-02-14T08:46:31.999Z,19.00
2023-02-14T08:49:00.716Z,19.00
2023-02-14T08:51:29.394Z,16.00
2023-02-14T08:53:57.709Z,17.00
2023-02-14T08:56:26.173Z,19.00
2023-02-14T08:58:55.261Z,13.00
2023-02-14T09:01:23.714Z,14.00
2023-02-14T09:03:52.577Z,12.67
2023-02-14T09:06:21.207Z,15.00
2023-02-14T09:08:49.904Z,15.67
2023-02-14T09:11:22.446Z,15.00
2023-02-14T09:13:53.375Z,4.00
2023-02-14T09:16:22.963Z,11.00
2023-02-14T09:18:52.958Z,14.50
2023-02-14T09:21:24.400Z,12.00
2023-02-14T09:23:53.183Z,14.00
2023-02-14T09:26:22.306Z,13.00
2023-02-14T09:28:50.660Z,13.00
2023-02-14T09:31:22.056Z,16.00
2023-02-14T09:33:51.815Z,12.00
2023-02-14T09:36:39.051Z,16.00
2023-02-14T09:39:07.621Z,7.00
2023-02-14T09:41:54.131Z,16.00
2023-02-14T09:44:59.068Z,13.00
2023-02-14T09:47:40.751Z,13.75
2023-02-14T09:50:30.560Z,13.67
2023-02-14T09:53:02.520Z,7.00
2023-02-14T09:55:39.373Z,16.00
2023-02-14T09:58:17.820Z,12.50
2023-02-14T10:00:49.813Z,14.00
2023-02-14T10:03:36.606Z,14.00
2023-02-14T10:06:27.486Z,16.00
2023-02-14T10:09:51.356Z,15.67
2023-02-14T10:12:32.183Z,13.00
2023-02-14T10:15:03.007Z,12.75
2023-02-14T10:17:47.321Z,13.33
2023-02-14T10:20:30.447Z,14.00
2023-02-14T10:23:11.008Z,15.00
2023-02-14T10:26:06.843Z,12.00
2023-02-14T10:28:40.726Z,15.00
2023-02-14T10:31:18.613Z,13.67
2023-02-14T10:33:56.447Z,13.75
2023-02-14T10:36:42.028Z,15.00
2023-02-14T10:39:16.138Z,12.00
2023-02-14T10:41:49.431Z,11.00
2023-02-14T10:44:28.473Z,12.50
2023-02-14T10:47:07.590Z,14.00
2023-02-14T10:49:50.720Z,12.00
2023-02-14T10:52:31.364Z,10.67
2023-02-14T10:55:06.240Z,10.00
2023-02-14T10:57:38.998Z,14.00
2023-02-14T11:00:08.403Z,9.33
2023-02-14T11:02:43.401Z,10.33
2023-02-14T11:05:27.381Z,12.50
2023-02-14T11:07:59.247Z,12.67
2023-02-14T11:10:31.722Z,12.00
2023-02-14T11:13:00.612Z,8.67
2023-02-14T11:15:37.805Z,12.00
2023-02-14T11:18:32.204Z,10.50
2023-02-14T11:21:06.715Z,12.00
2023-02-14T11:23:43.592Z,13.50
2023-02-14T11:26:17.190Z,14.33
2023-02-14T11:29:01.050Z,14.00
2023-02-14T11:31:30.840Z,16.00
2023-02-14T11:34:01.922Z,15.00
2023-02-14T11:36:32.121Z,13.00
2023-02-14T11:39:19.257Z,12.25
2023-02-14T11:41:53.936Z,12.00
2023-02-14T11:44:26.428Z,11.00
2023-02-14T11:46:56.903Z,12.67
2023-02-14T11:49:34.376Z,13.00
2023-02-14T11:52:11.643Z,13.33
2023-02-14T11:54:41.661Z,11.00
2023-02-14T11:57:22.126Z,7.67
2023-02-14T11:59:55.834Z,15.00
2023-02-14T12:02:28.564Z,15.00
2023-02-14T12:05:28.130Z,11.50
2023-02-14T12:08:00.125Z,14.33
2023-02-14T12:10:33.181Z,13.50
2023-02-14T12:13:08.193Z,11.50
2023-02-14T12:15:42.803Z,13.25
2023-02-14T12:18:39.617Z,9.50
2023-02-14T12:21:41.374Z,14.00
2023-02-14T12:24:28.360Z,13.33
2023-02-14T12:27:25.427Z,12.50
2023-02-14T12:30:05.583Z,11.50
2023-02-14T12:32:34.680Z,14.00
2023-02-14T12:35:14.629Z,12.25
2023-02-14T12:38:15.548Z,14.00
2023-02-14T12:41:02.294Z,13.00
2023-02-14T12:43:53.703Z,14.75
2023-02-14T12:46:45.299Z,13.00
2023-02-14T12:49:41.041Z,11.00
2023-02-14T12:52:43.398Z,10.50
2023-02-14T12:55:56.221Z,11.00
2023-02-14T12:58:48.767Z,9.00
2023-02-14T13:01:44.343Z,11.67
2023-02-14T13:04:40.903Z,13.00
2023-02-14T13:07:09.824Z,10.00
2023-02-14T13:10:16.899Z,11.00
2023-02-14T13:12:50.914Z,9.50
2023-02-14T13:15:33.433Z,12.00
2023-02-14T13:18:19.013Z,13.00
2023-02-14T13:20:55.994Z,12.50
2023-02-14T13:23:40.956Z,9.50
2023-02-14T13:26:11.998Z,9.00
2023-02-14T13:28:50.822Z,9.50
2023-02-14T13:31:20.545Z,12.00
2023-02-14T13:33:56.795Z,10.67
2023-02-14T13:36:26.117Z,11.00
2023-02-14T13:38:56.234Z,8.00
2023-02-14T13:41:26.743Z,8.00
2023-02-14T13:43:56.666Z,9.00
2023-02-14T13:46:34.207Z,9.00
2023-02-14T13:49:21.074Z,10.00
2023-02-14T13:51:51.803Z,12.00
2023-02-14T13:54:36.667Z,10.67
2023-02-14T13:57:32.903Z,9.50
2023-02-14T14:00:19.410Z,9.00
2023-02-14T14:02:50.166Z,9.00
2023-02-14T14:05:31.128Z,7.50
2023-02-14T14:08:21.006Z,9.00
2023-02-14T14:10:54.451Z,7.00
2023-02-14T14:13:41.323Z,8.33
2023-02-14T14:16:28.189Z,8.00
2023-02-14T14:19:00.371Z,7.67
2023-02-14T14:21:38.207Z,7.50
2023-02-14T14:24:18.450Z,9.00
2023-02-14T14:27:18.989Z,7.75
2023-02-14T14:29:53.969Z,10.00
2023-02-14T14:32:34.186Z,4.00
2023-02-14T14:35:04.601Z,7.00
2023-02-14T14:37:36.155Z,8.50
2023-02-14T14:40:07.310Z,7.00
2023-02-14T14:42:40.398Z,7.00
2023-02-14T14:45:21.073Z,10.33
2023-02-14T14:47:50.048Z,8.50
2023-02-14T14:50:33.587Z,9.00
2023-02-14T14:53:05.884Z,8.00
2023-02-14T14:55:37.111Z,8.00
2023-02-14T14:58:11.248Z,7.50
2023-02-14T15:00:42.943Z,8.25
2023-02-14T15:03:12.182Z,6.33
2023-02-14T15:05:48.941Z,8.00
2023-02-14T15:08:34.672Z,6.50
2023-02-14T15:11:39.796Z,8.00
2023-02-14T15:14:14.208Z,7.00
2023-02-14T15:16:47.742Z,7.67
2023-02-14T15:19:22.021Z,6.00
2023-02-14T15:21:51.120Z,5.00
2023-02-14T15:24:20.217Z,7.00
2023-02-14T15:26:51.985Z,7.67
2023-02-14T15:29:28.240Z,6.67
2023-02-14T15:32:00.442Z,6.50
2023-02-14T15:34:33.281Z,7.00
2023-02-14T15:37:07.016Z,6.00
2023-02-14T15:40:07.854Z,8.00
2023-02-14T15:42:41.764Z,6.00
2023-02-14T15:45:36.240Z,6.50
2023-02-14T15:48:11.627Z,5.50
2023-02-14T15:50:49.364Z,5.00
2023-02-14T15:53:20.630Z,7.00
2023-02-14T15:55:52.715Z,7.00
2023-02-14T15:58:24.654Z,4.00
2023-02-14T16:00:54.060Z,5.00
2023-02-14T16:03:25.052Z,6.00
2023-02-14T16:05:55.051Z,7.00
2023-02-14T16:08:30.044Z,7.50
2023-02-14T16:11:01.731Z,7.00
2023-02-14T16:13:32.754Z,7.00
2023-02-14T16:16:04.172Z,6.00
2023-02-14T16:18:48.237Z,5.00
2023-02-14T16:21:25.219Z,7.50
2023-02-14T16:24:05.985Z,6.50
2023-02-14T16:26:35.960Z,2.00
2023-02-14T16:29:06.059Z,5.75
2023-02-14T16:31:35.106Z,6.50
2023-02-14T16:34:03.704Z,8.00
2023-02-14T16:36:34.040Z,6.50
2023-02-14T16:39:07.671Z,7.00
2023-02-14T16:41:36.009Z,8.00
2023-02-14T16:44:05.109Z,7.33
2023-02-14T16:46:36.181Z,6.50
2023-02-14T16:49:04.533Z,9.00
2023-02-14T16:51:34.545Z,6.67
2023-02-14T16:54:16.365Z,9.00
2023-02-14T16:56:47.621Z,9.00
2023-02-14T16:59:15.862Z,10.00
2023-02-14T17:01:44.465Z,9.50
2023-02-14T17:04:12.928Z,8.67
2023-02-14T17:06:47.381Z,7.00
2023-02-14T17:09:17.987Z,9.00
2023-02-14T17:11:48.726Z,7.00
2023-02-14T17:14:22.534Z,8.00
2023-02-14T17:16:51.625Z,6.50
2023-02-14T17:19:20.210Z,6.33
2023-02-14T17:21:48.999Z,5.50
2023-02-14T17:24:17.378Z,8.00
2023-02-14T17:26:45.757Z,9.00
2023-02-14T17:29:14.238Z,7.25
2023-02-14T17:31:43.369Z,7.50
2023-02-14T17:34:11.819Z,7.00
2023-02-14T17:36:40.505Z,0.00
2023-02-14T17:39:09.188Z,5.00
2023-02-14T17:41:37.568Z,3.50
2023-02-14T17:44:07.492Z,3.33
2023-02-14T17:46:35.931Z,7.00
2023-02-14T17:49:04.452Z,7.00
2023-02-14T17:51:33.130Z,6.00
2023-02-14T17:54:01.620Z,3.50
2023-02-14T17:56:30.097Z,6.00
2023-02-14T17:59:00.181Z,5.33
2023-02-14T18:01:31.702Z,6.33
2023-02-14T18:04:00.565Z,3.00
2023-02-14T18:06:29.359Z,6.00
2023-02-14T18:08:58.346Z,8.00
2023-02-14T18:11:28.890Z,3.33
2023-02-14T18:13:59.919Z,3.67
2023-02-14T18:16:28.391Z,7.75
2023-02-14T18:18:56.878Z,5.00
2023-02-14T18:21:25.672Z,6.00
2023-02-14T18:23:54.272Z,7.00
2023-02-14T18:26:22.633Z,7.25
2023-02-14T18:28:51.625Z,5.00
2023-02-14T18:31:21.046Z,7.50
2023-02-14T18:33:51.078Z,5.00
2023-02-14T18:36:21.768Z,7.00
2023-02-14T18:38:50.670Z,7.00
2023-02-14T18:41:20.790Z,8.00
2023-02-14T18:43:50.289Z,6.00
2023-02-14T18:46:24.412Z,3.50
2023-02-14T18:48:52.988Z,6.50
2023-02-14T18:51:24.052Z,7.67
2023-02-14T18:53:53.129Z,8.00
2023-02-14T18:56:23.894Z,5.00
2023-02-14T18:58:57.782Z,5.67
2023-02-14T19:01:31.990Z,4.00
2023-02-14T19:04:01.701Z,4.00
2023-02-14T19:06:31.306Z,5.00
2023-02-14T19:08:59.600Z,6.00
2023-02-14T19:11:33.193Z,8.00
2023-02-14T19:14:05.572Z,7.00
2023-02-14T19:16:37.067Z,5.33
2023-02-14T19:19:06.226Z,4.00
2023-02-14T19:21:35.323Z,4.50
2023-02-14T19:24:07.171Z,6.00
2023-02-14T19:26:40.860Z,8.00
2023-02-14T19:29:15.092Z,5.50
2023-02-14T19:31:46.055Z,5.00
2023-02-14T19:34:20.465Z,7.00
2023-02-14T19:36:50.279Z,7.00
2023-02-14T19:39:19.976Z,7.00
2023-02-14T19:41:48.832Z,7.00
2023-02-14T19:44:18.785Z,5.50
2023-02-14T19:46:47.874Z,6.00
2023-02-14T19:49:19.519Z,7.00
2023-02-14T19:51:49.555Z,8.00
2023-02-14T19:54:18.450Z,7.00
2023-02-14T19:56:47.137Z,7.00
2023-02-14T19:59:20.450Z,6.33
2023-02-14T20:01:53.811Z,7.00
2023-02-14T20:04:28.373Z,6.50
2023-02-14T20:06:57.383Z,5.00
2023-02-14T20:09:26.333Z,7.00
2023-02-14T20:11:56.254Z,4.00
2023-02-14T20:14:43.663Z,7.00
2023-02-14T20:17:19.225Z,2.33
2023-02-14T20:19:47.908Z,5.50
2023-02-14T20:22:16.389Z,5.00
2023-02-14T20:24:45.394Z,6.25
2023-02-14T20:27:13.759Z,7.33
2023-02-14T20:29:45.662Z,6.00
2023-02-14T20:32:15.942Z,6.67
2023-02-14T20:34:45.154Z,7.00
2023-02-14T20:37:13.626Z,7.00
2023-02-14T20:39:43.853Z,6.00
2023-02-14T20:42:12.240Z,6.33
2023-02-14T20:44:41.940Z,6.00
2023-02-14T20:47:11.245Z,8.00
2023-02-14T20:49:40.336Z,5.00
2023-02-14T20:52:08.713Z,6.00
2023-02-14T20:54:38.890Z,5.00
2023-02-14T20:57:07.321Z,6.50
2023-02-14T20:59:36.411Z,4.50
2023-02-14T21:02:04.899Z,5.33
2023-02-14T21:04:33.374Z,5.00
2023-02-14T21:07:07.872Z,6.00
2023-02-14T21:09:38.313Z,6.50
2023-02-14T21:12:07.729Z,6.00
2023-02-14T21:14:36.107Z,4.00
2023-02-14T21:17:05.213Z,4.33
2023-02-14T21:19:33.793Z,4.50
2023-02-14T21:22:02.187Z,4.50
2023-02-14T21:24:30.759Z,5.00
2023-02-14T21:26:59.032Z,5.00
2023-02-14T21:29:27.633Z,6.75
2023-02-14T21:31:56.147Z,6.00
2023-02-14T21:34:24.791Z,6.33
2023-02-14T21:36:56.553Z,4.00
2023-02-14T21:39:28.617Z,6.00
2023-02-14T21:41:57.608Z,5.00
2023-02-14T21:44:44.733Z,5.00
2023-02-14T21:47:13.309Z,4.67
2023-02-14T21:50:00.132Z,5.00
2023-02-14T21:52:30.554Z,5.00
2023-02-14T21:54:59.028Z,5.00
2023-02-14T21:57:27.423Z,4.00
2023-02-14T21:59:55.890Z,6.00
2023-02-14T22:02:24.388Z,5.00
2023-02-14T22:04:52.861Z,4.00
2023-02-14T22:07:21.236Z,6.00
2023-02-14T22:09:49.727Z,5.67
2023-02-14T22:12:18.201Z,5.00
2023-02-14T22:14:46.885Z,6.00
2023-02-14T22:24:59.549Z,6.00
2023-02-14T22:27:28.032Z,5.00
2023-02-14T22:29:56.478Z,5.00
2023-02-14T22:32:25.443Z,6.00
2023-02-14T22:34:55.217Z,6.00
2023-02-14T22:37:23.706Z,5.25
2023-02-14T22:39:52.176Z,4.67
2023-02-14T22:42:20.662Z,5.67
2023-02-14T22:44:49.144Z,6.00
2023-02-14T22:47:18.029Z,5.00
2023-02-14T22:49:46.531Z,6.00
2023-02-14T22:52:15.093Z,5.00
2023-02-14T22:54:43.840Z,5.00
2023-02-14T22:57:12.266Z,6.00
2023-02-14T22:59:41.058Z,5.00
2023-02-14T23:02:11.359Z,4.67
2023-02-14T23:04:39.755Z,6.67
2023-02-14T23:07:11.399Z,5.00
2023-02-14T23:09:39.697Z,4.00
2023-02-14T23:12:28.056Z,5.50
2023-02-14T23:15:15.290Z,5.33
2023-02-14T23:18:02.416Z,5.00
2023-02-14T23:20:49.701Z,6.00
2023-02-14T23:23:18.188Z,5.25
2023-02-14T23:25:46.669Z,4.67
2023-02-14T23:28:15.048Z,5.33
2023-02-14T23:30:43.523Z,4.00
2023-02-14T23:33:12.007Z,6.33
2023-02-14T23:35:40.387Z,5.00
2023-02-14T23:38:08.881Z,5.50
2023-02-14T23:40:55.679Z,4.00
2023-02-14T23:43:24.265Z,5.00
2023-02-14T23:45:52.879Z,5.75
2023-02-14T23:48:21.330Z,5.50
2023-02-14T23:50:49.926Z,4.50
2023-02-14T23:53:18.498Z,4.67
2023-02-14T23:55:46.983Z,5.25
2023-02-14T23:58:15.373Z,4.00
